Time;durP1;ratioP1;P1;durP2;ratioP2;P2;SDS_P1;SDS_P2;PMS_P1;PMS_P2;Temp;Humidity;BMP_temperature;BMP_pressure;BME280_temperature;BME280_humidity;BME280_pressure;Samples;Min_cycle;Max_cycle;Signal;HPM_P1;HPM_P2
2023/09/11 00:02:21;;;;;;;7.97;6.55;;;;;;;;;;5089960;28;20452;-74
2023/09/11 00:04:46;;;;;;;8.05;5.55;;;;;;;;;;5088688;28;20030;-74
2023/09/11 00:07:12;;;;;;;8.15;6.50;;;;;;;;;;5094352;28;20454;-77
2023/09/11 00:09:37;;;;;;;8.38;6.05;;;;;;;;;;5104374;28;20393;-74
2023/09/11 00:12:03;;;;;;;8.45;6.55;;;;;;;;;;5102185;28;20401;-75
2023/09/11 00:14:28;;;;;;;7.22;6.05;;;;;;;;;;5103553;28;20023;-74
2023/09/11 00:16:54;;;;;;;6.88;5.32;;;;;;;;;;5102488;28;20032;-74
2023/09/11 00:19:19;;;;;;;7.10;5.20;;;;;;;;;;5104272;28;20036;-73
2023/09/11 00:21:44;;;;;;;7.28;5.53;;;;;;;;;;5095835;28;20105;-73
2023/09/11 00:24:10;;;;;;;6.10;5.50;;;;;;;;;;5100179;28;20030;-74
2023/09/11 00:26:35;;;;;;;8.20;5.32;;;;;;;;;;5097846;28;20492;-74
2023/09/11 00:29:00;;;;;;;8.13;5.28;;;;;;;;;;5102163;28;20439;-73
2023/09/11 00:31:26;;;;;;;9.40;5.50;;;;;;;;;;5095559;28;20108;-75
2023/09/11 00:33:51;;;;;;;6.93;5.38;;;;;;;;;;5099457;28;20046;-73
2023/09/11 00:36:16;;;;;;;5.05;4.65;;;;;;;;;;5101508;28;20039;-74
2023/09/11 00:38:42;;;;;;;8.30;5.20;;;;;;;;;;5104513;28;20605;-74
2023/09/11 00:41:07;;;;;;;6.50;5.55;;;;;;;;;;5103582;28;20374;-74
2023/09/11 00:43:32;;;;;;;6.78;5.25;;;;;;;;;;5105088;28;20023;-74
2023/09/11 00:45:58;;;;;;;6.68;5.68;;;;;;;;;;5104745;28;20027;-74
2023/09/11 00:48:24;;;;;;;6.13;5.28;;;;;;;;;;5103665;28;20102;-74
2023/09/11 00:50:50;;;;;;;6.43;5.55;;;;;;;;;;5104474;28;20362;-73
2023/09/11 00:53:16;;;;;;;5.82;5.22;;;;;;;;;;5102925;28;20053;-74
2023/09/11 00:55:44;;;;;;;8.00;5.07;;;;;;;;;;5100468;28;20024;-73
2023/09/11 00:58:09;;;;;;;6.90;5.70;;;;;;;;;;5103349;28;20053;-73
2023/09/11 01:00:37;;;;;;;6.35;5.25;;;;;;;;;;5094915;28;20024;-76
2023/09/11 01:03:02;;;;;;;8.20;5.50;;;;;;;;;;5101817;28;20035;-73
2023/09/11 01:05:29;;;;;;;5.78;5.28;;;;;;;;;;5101542;28;20020;-74
2023/09/11 01:07:54;;;;;;;6.53;5.28;;;;;;;;;;5100973;28;20051;-73
2023/09/11 01:10:20;;;;;;;7.00;6.15;;;;;;;;;;5100913;28;20062;-74
2023/09/11 01:12:45;;;;;;;6.18;5.47;;;;;;;;;;5102289;28;20100;-73
2023/09/11 01:15:11;;;;;;;6.43;5.22;;;;;;;;;;5094741;28;20024;-77
2023/09/11 01:17:50;;;;;;;6.10;5.40;;;;;;;;;;5089574;28;20031;-74
2023/09/11 01:20:38;;;;;;;8.70;5.93;;;;;;;;;;5102978;28;20027;-74
2023/09/11 01:23:16;;;;;;;5.85;5.30;;;;;;;;;;5097882;28;20034;-73
2023/09/11 01:25:41;;;;;;;9.38;5.80;;;;;;;;;;5100921;28;20080;-73
2023/09/11 01:28:12;;;;;;;7.22;5.72;;;;;;;;;;5102387;28;20053;-75
2023/09/11 01:30:39;;;;;;;6.60;5.07;;;;;;;;;;5100487;28;20027;-75
2023/09/11 01:33:04;;;;;;;7.40;5.55;;;;;;;;;;5100526;28;20032;-74
2023/09/11 01:35:29;;;;;;;5.85;5.18;;;;;;;;;;5100337;28;20454;-76
2023/09/11 01:37:55;;;;;;;8.85;5.28;;;;;;;;;;5100504;27;20153;-74
2023/09/11 01:40:21;;;;;;;6.75;5.47;;;;;;;;;;5101548;28;20075;-72
2023/09/11 01:42:49;;;;;;;6.53;5.10;;;;;;;;;;5100029;28;20035;-74
2023/09/11 01:45:15;;;;;;;6.28;5.55;;;;;;;;;;5102484;28;20046;-75
2023/09/11 01:47:45;;;;;;;6.78;6.07;;;;;;;;;;5089090;28;20438;-73
2023/09/11 01:50:14;;;;;;;5.90;5.40;;;;;;;;;;5102104;28;20110;-75
2023/09/11 01:52:40;;;;;;;6.20;5.47;;;;;;;;;;5101777;28;20096;-78
2023/09/11 01:55:06;;;;;;;6.93;4.85;;;;;;;;;;5100761;27;20664;-75
2023/09/11 01:57:31;;;;;;;6.68;5.35;;;;;;;;;;5098968;28;20026;-73
2023/09/11 01:59:56;;;;;;;8.27;5.32;;;;;;;;;;5100725;28;20034;-74
2023/09/11 02:02:22;;;;;;;6.22;5.63;;;;;;;;;;5101343;28;20058;-74
2023/09/11 02:04:47;;;;;;;7.85;5.43;;;;;;;;;;5102998;28;20350;-74
2023/09/11 02:07:12;;;;;;;6.68;5.20;;;;;;;;;;5093094;28;20023;-73
2023/09/11 02:09:38;;;;;;;7.97;5.68;;;;;;;;;;5095023;28;20053;-75
2023/09/11 02:12:03;;;;;;;6.35;5.70;;;;;;;;;;5100836;28;20031;-75
2023/09/11 02:14:28;;;;;;;6.82;5.70;;;;;;;;;;5102178;28;20045;-75
2023/09/11 02:16:54;;;;;;;6.78;6.07;;;;;;;;;;5098105;28;20148;-73
2023/09/11 02:19:19;;;;;;;6.70;5.57;;;;;;;;;;5100559;28;20015;-72
2023/09/11 02:21:45;;;;;;;6.32;5.68;;;;;;;;;;5101366;28;20032;-75
2023/09/11 02:24:10;;;;;;;5.97;5.38;;;;;;;;;;5094543;28;20015;-73
2023/09/11 02:26:35;;;;;;;6.50;5.90;;;;;;;;;;5096434;28;20027;-73
2023/09/11 02:29:01;;;;;;;6.60;5.97;;;;;;;;;;5100179;28;20012;-73
2023/09/11 02:31:26;;;;;;;8.35;5.18;;;;;;;;;;5097827;28;20067;-74
2023/09/11 02:33:52;;;;;;;7.88;6.20;;;;;;;;;;5100522;28;20035;-76
2023/09/11 02:36:17;;;;;;;7.45;5.30;;;;;;;;;;5098503;28;20112;-74
2023/09/11 02:38:43;;;;;;;8.00;5.85;;;;;;;;;;5099931;28;20035;-74
2023/09/11 02:41:08;;;;;;;7.80;5.45;;;;;;;;;;5098942;28;20783;-73
2023/09/11 02:43:35;;;;;;;6.43;5.70;;;;;;;;;;5099089;28;20048;-74
2023/09/11 02:46:00;;;;;;;6.22;5.25;;;;;;;;;;5098883;28;20395;-74
2023/09/11 02:48:27;;;;;;;8.27;6.10;;;;;;;;;;5100922;28;20059;-73
2023/09/11 02:50:52;;;;;;;6.07;5.13;;;;;;;;;;5101738;28;20035;-74
2023/09/11 02:53:18;;;;;;;6.82;5.25;;;;;;;;;;5099223;28;20160;-75
2023/09/11 02:55:43;;;;;;;6.50;5.47;;;;;;;;;;5098823;28;20028;-74
2023/09/11 02:58:09;;;;;;;9.10;5.70;;;;;;;;;;5100264;28;20027;-75
2023/09/11 03:00:34;;;;;;;7.35;5.38;;;;;;;;;;5101489;28;20035;-75
2023/09/11 03:03:01;;;;;;;6.13;5.53;;;;;;;;;;5100137;28;20349;-73
2023/09/11 03:05:26;;;;;;;6.90;5.68;;;;;;;;;;5100233;28;20070;-73
2023/09/11 03:07:52;;;;;;;8.35;5.95;;;;;;;;;;5096899;28;20055;-75
2023/09/11 03:10:17;;;;;;;7.53;5.88;;;;;;;;;;5094811;28;20434;-75
2023/09/11 03:12:42;;;;;;;6.00;5.50;;;;;;;;;;5097201;28;20019;-75
2023/09/11 03:15:08;;;;;;;8.75;6.10;;;;;;;;;;5092892;28;20031;-73
2023/09/11 03:17:33;;;;;;;6.03;5.45;;;;;;;;;;5100852;28;20020;-75
2023/09/11 03:19:59;;;;;;;6.03;5.43;;;;;;;;;;5102295;28;20485;-74
2023/09/11 03:22:24;;;;;;;8.50;5.75;;;;;;;;;;5101722;28;20023;-74
2023/09/11 03:24:50;;;;;;;8.55;5.57;;;;;;;;;;5096593;28;20499;-74
2023/09/11 03:27:15;;;;;;;10.15;5.95;;;;;;;;;;5094240;28;20027;-74
2023/09/11 03:29:40;;;;;;;6.55;5.85;;;;;;;;;;5100677;28;20023;-74
2023/09/11 03:32:06;;;;;;;6.40;5.70;;;;;;;;;;5097746;28;20088;-74
2023/09/11 03:34:31;;;;;;;6.43;5.82;;;;;;;;;;5095088;28;20392;-73
2023/09/11 03:36:57;;;;;;;6.63;5.93;;;;;;;;;;5105789;28;21076;-76
2023/09/11 03:39:22;;;;;;;7.57;6.03;;;;;;;;;;5104894;28;20092;-75
2023/09/11 03:41:47;;;;;;;6.78;6.05;;;;;;;;;;5105270;28;20042;-75
2023/09/11 03:44:13;;;;;;;6.68;5.57;;;;;;;;;;5104437;28;20394;-74
2023/09/11 03:46:39;;;;;;;6.45;5.28;;;;;;;;;;5103276;28;20027;-74
2023/09/11 03:49:04;;;;;;;10.20;5.57;;;;;;;;;;5103509;28;20020;-74
2023/09/11 03:51:29;;;;;;;8.15;5.30;;;;;;;;;;5099012;28;20042;-75
2023/09/11 03:53:57;;;;;;;5.82;5.22;;;;;;;;;;5091276;28;20046;-74
2023/09/11 03:56:22;;;;;;;7.32;5.80;;;;;;;;;;5102980;28;20064;-73
2023/09/11 03:58:48;;;;;;;9.95;5.45;;;;;;;;;;5104127;27;20019;-74
2023/09/11 04:01:13;;;;;;;7.00;5.40;;;;;;;;;;5105055;28;20027;-75
2023/09/11 04:03:40;;;;;;;6.70;5.25;;;;;;;;;;5093106;27;20019;-72
2023/09/11 04:06:05;;;;;;;6.15;5.40;;;;;;;;;;5088788;28;20024;-73
2023/09/11 04:08:30;;;;;;;6.10;5.47;;;;;;;;;;5089845;28;20031;-74
2023/09/11 04:10:56;;;;;;;9.77;5.88;;;;;;;;;;5090107;28;20091;-74
2023/09/11 04:13:21;;;;;;;7.93;6.03;;;;;;;;;;5090002;27;20601;-74
2023/09/11 04:15:46;;;;;;;7.35;5.40;;;;;;;;;;5090641;27;20405;-73
2023/09/11 04:18:12;;;;;;;9.95;5.43;;;;;;;;;;5089110;28;20031;-75
2023/09/11 04:20:37;;;;;;;5.97;5.40;;;;;;;;;;5093784;27;20031;-73
2023/09/11 04:23:02;;;;;;;8.98;5.88;;;;;;;;;;5100430;27;20023;-75
2023/09/11 04:25:28;;;;;;;8.40;5.78;;;;;;;;;;5102951;28;20015;-72
2023/09/11 04:27:54;;;;;;;9.20;5.82;;;;;;;;;;5092791;28;20035;-73
2023/09/11 04:30:19;;;;;;;8.35;5.50;;;;;;;;;;5089606;28;20043;-73
2023/09/11 04:32:44;;;;;;;8.40;6.10;;;;;;;;;;5089813;28;20024;-77
2023/09/11 04:35:10;;;;;;;7.28;5.85;;;;;;;;;;5090414;28;20098;-73
2023/09/11 04:37:38;;;;;;;10.07;5.90;;;;;;;;;;5101849;28;20031;-72
2023/09/11 04:40:06;;;;;;;11.13;5.70;;;;;;;;;;5104092;28;20047;-73
2023/09/11 04:42:32;;;;;;;6.00;5.38;;;;;;;;;;5102426;28;20024;-72
2023/09/11 04:44:59;;;;;;;8.75;7.00;;;;;;;;;;5103309;28;20028;-72
2023/09/11 04:47:25;;;;;;;7.25;6.00;;;;;;;;;;5102473;28;20030;-72
2023/09/11 04:49:50;;;;;;;10.57;5.53;;;;;;;;;;5098790;28;20107;-73
2023/09/11 04:52:15;;;;;;;12.52;6.63;;;;;;;;;;5100093;28;20080;-73
2023/09/11 04:54:40;;;;;;;6.03;5.43;;;;;;;;;;5101298;27;20579;-75
2023/09/11 04:57:06;;;;;;;7.68;6.10;;;;;;;;;;5100395;27;20096;-74
2023/09/11 04:59:31;;;;;;;9.02;6.55;;;;;;;;;;5100039;28;20088;-72
2023/09/11 05:01:57;;;;;;;8.75;6.03;;;;;;;;;;5091153;27;20027;-71
2023/09/11 05:04:22;;;;;;;7.68;6.68;;;;;;;;;;5098405;28;20080;-71
2023/09/11 05:06:47;;;;;;;7.85;6.60;;;;;;;;;;5099365;28;20066;-74
2023/09/11 05:09:13;;;;;;;10.52;6.97;;;;;;;;;;5097597;28;20097;-72
2023/09/11 05:11:38;;;;;;;7.30;6.50;;;;;;;;;;5101220;28;20070;-72
2023/09/11 05:14:03;;;;;;;9.38;6.90;;;;;;;;;;5101966;28;20042;-74
2023/09/11 05:16:29;;;;;;;10.85;8.55;;;;;;;;;;5100977;28;20380;-71
2023/09/11 05:18:55;;;;;;;13.07;11.73;;;;;;;;;;5100431;28;20383;-73
2023/09/11 05:21:20;;;;;;;10.38;8.93;;;;;;;;;;5098910;28;20461;-74
2023/09/11 05:23:45;;;;;;;9.52;8.02;;;;;;;;;;5097326;28;20031;-72
2023/09/11 05:26:11;;;;;;;7.95;7.15;;;;;;;;;;5099790;28;20027;-71
2023/09/11 05:28:36;;;;;;;7.55;6.05;;;;;;;;;;5100301;28;20031;-71
2023/09/11 05:31:01;;;;;;;8.70;6.78;;;;;;;;;;5099618;28;20446;-73
2023/09/11 05:33:27;;;;;;;7.10;6.00;;;;;;;;;;5098399;28;20030;-71
2023/09/11 05:35:52;;;;;;;7.97;6.18;;;;;;;;;;5102138;28;20023;-71
2023/09/11 05:38:18;;;;;;;7.75;6.30;;;;;;;;;;5100956;28;20097;-75
2023/09/11 05:40:43;;;;;;;8.18;5.90;;;;;;;;;;5097492;28;20123;-71
2023/09/11 05:43:08;;;;;;;8.88;6.57;;;;;;;;;;5098986;28;20031;-75
2023/09/11 05:45:34;;;;;;;7.85;6.65;;;;;;;;;;5099802;28;20031;-72
2023/09/11 05:47:59;;;;;;;9.52;6.68;;;;;;;;;;5097847;28;20027;-72
2023/09/11 05:50:24;;;;;;;9.73;6.55;;;;;;;;;;5101535;27;20032;-72
2023/09/11 05:52:50;;;;;;;9.02;6.65;;;;;;;;;;5099529;28;20034;-70
2023/09/11 05:55:15;;;;;;;8.70;6.47;;;;;;;;;;5102341;28;20469;-73
2023/09/11 05:57:40;;;;;;;9.52;6.75;;;;;;;;;;5101765;28;20322;-71
2023/09/11 06:00:12;;;;;;;9.88;6.95;;;;;;;;;;5101230;28;20059;-74
2023/09/11 06:02:37;;;;;;;10.25;5.93;;;;;;;;;;5098235;28;20031;-73
2023/09/11 06:05:05;;;;;;;7.65;6.20;;;;;;;;;;5102441;28;20019;-74
2023/09/11 06:07:31;;;;;;;10.07;6.07;;;;;;;;;;5102515;28;20038;-73
2023/09/11 06:09:56;;;;;;;7.13;6.25;;;;;;;;;;5097371;28;20042;-74
2023/09/11 06:12:23;;;;;;;9.60;8.52;;;;;;;;;;5100663;28;20024;-74
2023/09/11 06:14:48;;;;;;;10.77;6.32;;;;;;;;;;5097708;28;20140;-75
2023/09/11 06:17:13;;;;;;;7.55;6.45;;;;;;;;;;5100100;28;20488;-78
2023/09/11 06:19:39;;;;;;;6.65;5.78;;;;;;;;;;5099003;28;20403;-77
2023/09/11 06:22:04;;;;;;;7.18;5.93;;;;;;;;;;5101588;28;20035;-76
2023/09/11 06:24:29;;;;;;;9.90;7.18;;;;;;;;;;5098838;28;20024;-75
2023/09/11 06:27:02;;;;;;;10.35;7.47;;;;;;;;;;5099938;28;20027;-74
2023/09/11 06:29:28;;;;;;;11.25;7.15;;;;;;;;;;5097749;28;20020;-77
2023/09/11 06:31:53;;;;;;;9.55;7.15;;;;;;;;;;5101165;28;20042;-73
2023/09/11 06:34:19;;;;;;;9.68;6.43;;;;;;;;;;5101781;28;20733;-78
2023/09/11 06:36:44;;;;;;;6.95;6.25;;;;;;;;;;5092862;28;20038;-73
2023/09/11 06:39:09;;;;;;;8.52;6.72;;;;;;;;;;5092484;28;20350;-75
2023/09/11 06:41:35;;;;;;;11.25;7.07;;;;;;;;;;5100238;28;21052;-77
2023/09/11 06:44:02;;;;;;;9.27;6.70;;;;;;;;;;5100844;28;20377;-74
2023/09/11 06:46:27;;;;;;;10.73;7.03;;;;;;;;;;5099698;28;20051;-75
2023/09/11 06:48:52;;;;;;;9.63;6.60;;;;;;;;;;5103007;28;20103;-75
2023/09/11 06:51:18;;;;;;;8.82;6.00;;;;;;;;;;5100924;28;20036;-76
2023/09/11 06:53:43;;;;;;;8.98;5.82;;;;;;;;;;5101748;28;20031;-76
2023/09/11 06:56:09;;;;;;;10.05;6.10;;;;;;;;;;5100165;28;21058;-77
2023/09/11 06:58:34;;;;;;;12.75;6.40;;;;;;;;;;5101866;28;20028;-74
2023/09/11 07:01:00;;;;;;;7.32;5.55;;;;;;;;;;5102378;28;20034;-75
2023/09/11 07:03:25;;;;;;;10.32;5.72;;;;;;;;;;5098873;28;20023;-74
2023/09/11 07:05:51;;;;;;;8.95;5.70;;;;;;;;;;5101042;28;20027;-74
2023/09/11 07:08:16;;;;;;;7.93;5.97;;;;;;;;;;5104919;28;20035;-75
2023/09/11 07:10:47;;;;;;;9.10;6.25;;;;;;;;;;5103972;28;20508;-75
2023/09/11 07:13:13;;;;;;;9.45;5.80;;;;;;;;;;5105623;28;20102;-78
2023/09/11 07:15:38;;;;;;;9.90;5.55;;;;;;;;;;5104014;28;20110;-75
2023/09/11 07:18:03;;;;;;;16.40;6.60;;;;;;;;;;5103981;28;20030;-78
2023/09/11 07:20:29;;;;;;;15.43;7.15;;;;;;;;;;5104002;27;20067;-77
2023/09/11 07:22:54;;;;;;;7.38;6.15;;;;;;;;;;5094308;28;20047;-75
2023/09/11 07:25:22;;;;;;;9.88;6.13;;;;;;;;;;5104366;27;20023;-75
2023/09/11 07:27:48;;;;;;;10.35;5.93;;;;;;;;;;5105836;28;20360;-75
2023/09/11 07:30:13;;;;;;;10.75;6.82;;;;;;;;;;5103884;28;20039;-75
2023/09/11 07:32:40;;;;;;;8.93;5.32;;;;;;;;;;5104733;28;20023;-76
2023/09/11 07:35:05;;;;;;;7.65;5.70;;;;;;;;;;5102823;28;20080;-75
2023/09/11 07:37:30;;;;;;;7.72;5.63;;;;;;;;;;5106410;28;20480;-75
2023/09/11 07:39:56;;;;;;;9.30;6.20;;;;;;;;;;5105042;28;20434;-74
2023/09/11 07:42:21;;;;;;;9.15;5.13;;;;;;;;;;5104442;28;20032;-75
2023/09/11 07:44:46;;;;;;;8.13;5.07;;;;;;;;;;5103569;28;20028;-73
2023/09/11 07:47:15;;;;;;;8.05;5.50;;;;;;;;;;5102780;28;20023;-73
2023/09/11 07:49:40;;;;;;;7.32;5.57;;;;;;;;;;5105341;28;20023;-74
2023/09/11 07:52:05;;;;;;;10.40;5.88;;;;;;;;;;5104614;28;20430;-74
2023/09/11 07:54:31;;;;;;;10.63;5.97;;;;;;;;;;5103481;28;20042;-75
2023/09/11 07:56:56;;;;;;;7.13;5.32;;;;;;;;;;5104330;28;20034;-74
2023/09/11 07:59:22;;;;;;;9.27;5.90;;;;;;;;;;5104929;27;20031;-75
2023/09/11 08:01:47;;;;;;;9.68;5.80;;;;;;;;;;5105018;28;20031;-76
2023/09/11 08:04:13;;;;;;;7.57;5.70;;;;;;;;;;5105607;28;20113;-74
2023/09/11 08:06:38;;;;;;;6.30;5.25;;;;;;;;;;5103549;28;20023;-75
2023/09/11 08:09:03;;;;;;;7.90;5.60;;;;;;;;;;5096500;28;20350;-78
2023/09/11 08:11:30;;;;;;;9.25;5.78;;;;;;;;;;5101978;28;20028;-75
2023/09/11 08:13:55;;;;;;;7.55;5.40;;;;;;;;;;5105510;28;20092;-74
2023/09/11 08:16:21;;;;;;;9.85;5.72;;;;;;;;;;5105146;28;20435;-76
2023/09/11 08:18:46;;;;;;;9.63;5.38;;;;;;;;;;5101692;28;20034;-74
2023/09/11 08:21:12;;;;;;;7.90;5.15;;;;;;;;;;5102130;28;20077;-75
2023/09/11 08:23:37;;;;;;;7.45;5.10;;;;;;;;;;5094408;28;20081;-76
2023/09/11 08:26:03;;;;;;;7.45;5.90;;;;;;;;;;5075773;28;20028;-74
2023/09/11 08:28:28;;;;;;;9.73;5.93;;;;;;;;;;5081210;28;20027;-75
2023/09/11 08:30:54;;;;;;;10.68;6.10;;;;;;;;;;5078892;28;20031;-74
2023/09/11 08:33:22;;;;;;;9.30;5.50;;;;;;;;;;5078597;28;20039;-75
2023/09/11 08:35:48;;;;;;;7.38;5.30;;;;;;;;;;5082625;28;20020;-76
2023/09/11 08:38:17;;;;;;;8.07;5.47;;;;;;;;;;5094655;28;20181;-75
2023/09/11 08:40:42;;;;;;;9.07;5.33;;;;;;;;;;5092871;28;20451;-75
2023/09/11 08:43:08;;;;;;;9.68;5.00;;;;;;;;;;5094425;28;20252;-76
2023/09/11 08:45:33;;;;;;;6.35;4.53;;;;;;;;;;5095081;27;20439;-75
2023/09/11 08:47:58;;;;;;;8.10;4.90;;;;;;;;;;5078497;28;20471;-77
2023/09/11 08:50:31;;;;;;;7.03;4.93;;;;;;;;;;5075591;28;20031;-75
2023/09/11 08:53:00;;;;;;;12.00;4.90;;;;;;;;;;5081079;28;20104;-73
2023/09/11 08:55:27;;;;;;;10.00;5.15;;;;;;;;;;5076359;28;20024;-75
2023/09/11 08:57:54;;;;;;;7.22;4.53;;;;;;;;;;5085045;28;20035;-74
2023/09/11 09:00:20;;;;;;;7.45;4.20;;;;;;;;;;5078939;28;20139;-75
2023/09/11 09:02:45;;;;;;;10.18;4.60;;;;;;;;;;5076808;28;20118;-74
2023/09/11 09:05:10;;;;;;;7.43;4.35;;;;;;;;;;5075251;28;20104;-76
2023/09/11 09:07:37;;;;;;;6.95;5.07;;;;;;;;;;5078753;28;20038;-75
2023/09/11 09:10:04;;;;;;;6.38;4.50;;;;;;;;;;5096374;28;20028;-75
2023/09/11 09:12:29;;;;;;;6.85;4.35;;;;;;;;;;5094810;28;20024;-76
2023/09/11 09:14:55;;;;;;;6.72;4.22;;;;;;;;;;5083049;27;20050;-75
2023/09/11 09:17:20;;;;;;;7.38;4.22;;;;;;;;;;5089405;28;20027;-75
2023/09/11 09:19:45;;;;;;;7.40;4.22;;;;;;;;;;5097075;28;20970;-74
2023/09/11 09:22:12;;;;;;;6.60;4.35;;;;;;;;;;5087578;28;20459;-76
2023/09/11 09:24:46;;;;;;;6.40;4.45;;;;;;;;;;5078002;28;20511;-74
2023/09/11 09:27:11;;;;;;;6.00;4.10;;;;;;;;;;5070162;28;20444;-74
2023/09/11 09:29:37;;;;;;;6.55;3.80;;;;;;;;;;5080170;28;20030;-76
2023/09/11 09:32:03;;;;;;;9.57;4.10;;;;;;;;;;5079638;28;20043;-75
2023/09/11 09:34:29;;;;;;;7.60;4.10;;;;;;;;;;5080923;28;20028;-80
2023/09/11 09:36:55;;;;;;;5.88;4.00;;;;;;;;;;5080949;28;20447;-75
2023/09/11 09:39:28;;;;;;;7.60;4.07;;;;;;;;;;5081074;28;20426;-78
2023/09/11 09:41:58;;;;;;;7.03;4.10;;;;;;;;;;5079546;28;20059;-75
2023/09/11 09:44:43;;;;;;;6.53;4.05;;;;;;;;;;5074981;28;20108;-74
2023/09/11 09:47:09;;;;;;;5.75;3.92;;;;;;;;;;5089863;28;20032;-77
2023/09/11 09:49:53;;;;;;;9.82;3.83;;;;;;;;;;5097318;28;20050;-76
2023/09/11 09:52:20;;;;;;;9.55;4.45;;;;;;;;;;5096686;28;20024;-76
2023/09/11 09:54:57;;;;;;;7.15;3.90;;;;;;;;;;5093244;28;20038;-75
2023/09/11 09:57:24;;;;;;;12.82;4.85;;;;;;;;;;5075130;28;20062;-73
2023/09/11 09:59:50;;;;;;;11.48;4.47;;;;;;;;;;5072456;28;20024;-74
2023/09/11 10:02:22;;;;;;;6.78;4.00;;;;;;;;;;5077986;28;20138;-75
2023/09/11 10:04:50;;;;;;;15.32;4.13;;;;;;;;;;5081613;28;20039;-76
2023/09/11 10:07:16;;;;;;;6.57;3.88;;;;;;;;;;5081531;28;20463;-74
2023/09/11 10:09:41;;;;;;;9.95;4.88;;;;;;;;;;5078749;28;20032;-74
2023/09/11 10:12:09;;;;;;;8.23;3.88;;;;;;;;;;5083108;28;20511;-77
2023/09/11 10:14:34;;;;;;;4.80;4.03;;;;;;;;;;5084381;28;20020;-74
2023/09/11 10:17:00;;;;;;;8.05;4.25;;;;;;;;;;5099815;28;20468;-75
2023/09/11 10:19:28;;;;;;;10.52;4.40;;;;;;;;;;5086442;28;20319;-75
2023/09/11 10:21:53;;;;;;;9.60;4.18;;;;;;;;;;5078973;28;20032;-76
2023/09/11 10:24:18;;;;;;;4.97;4.07;;;;;;;;;;5079307;28;20047;-76
2023/09/11 10:26:45;;;;;;;6.82;4.32;;;;;;;;;;5078971;28;20036;-74
2023/09/11 10:29:14;;;;;;;6.88;4.25;;;;;;;;;;5080627;28;20024;-75
2023/09/11 10:31:43;;;;;;;7.88;4.18;;;;;;;;;;5078810;28;20046;-74
2023/09/11 10:34:09;;;;;;;9.65;4.15;;;;;;;;;;5079636;28;20028;-76
2023/09/11 10:36:36;;;;;;;7.00;4.30;;;;;;;;;;5077793;28;20077;-75
2023/09/11 10:39:04;;;;;;;9.55;3.63;;;;;;;;;;5081171;28;20032;-75
2023/09/11 10:41:30;;;;;;;4.32;3.70;;;;;;;;;;5078061;28;20030;-75
2023/09/11 10:43:56;;;;;;;4.60;3.80;;;;;;;;;;5079523;28;20557;-76
2023/09/11 10:46:22;;;;;;;8.38;4.47;;;;;;;;;;5079364;28;20114;-76
2023/09/11 10:48:47;;;;;;;6.80;3.72;;;;;;;;;;5079695;28;20053;-74
2023/09/11 10:51:13;;;;;;;7.10;3.90;;;;;;;;;;5087202;28;20042;-75
2023/09/11 10:53:40;;;;;;;8.23;3.97;;;;;;;;;;5097234;28;20016;-77
2023/09/11 10:56:06;;;;;;;5.63;3.33;;;;;;;;;;5083125;28;20049;-75
2023/09/11 10:58:31;;;;;;;7.97;4.00;;;;;;;;;;5100235;28;20107;-76
2023/09/11 11:00:57;;;;;;;4.57;3.50;;;;;;;;;;5100869;28;20374;-75
2023/09/11 11:03:29;;;;;;;6.32;3.40;;;;;;;;;;5099850;28;20043;-78
2023/09/11 11:05:57;;;;;;;6.05;3.47;;;;;;;;;;5100481;28;20015;-76
2023/09/11 11:08:23;;;;;;;6.50;4.03;;;;;;;;;;5100738;28;20411;-75
2023/09/11 11:10:52;;;;;;;8.52;3.92;;;;;;;;;;5101248;28;20052;-74
2023/09/11 11:13:17;;;;;;;11.20;3.88;;;;;;;;;;5099523;28;20038;-75
2023/09/11 11:15:43;;;;;;;7.60;3.63;;;;;;;;;;5099129;28;20027;-75
2023/09/11 11:18:08;;;;;;;5.05;4.05;;;;;;;;;;5101453;28;20027;-75
2023/09/11 11:20:34;;;;;;;7.05;4.20;;;;;;;;;;5101949;28;20035;-76
2023/09/11 11:23:10;;;;;;;14.45;6.28;;;;;;;;;;5099861;28;20320;-76
2023/09/11 11:25:36;;;;;;;7.47;4.07;;;;;;;;;;5102254;28;20034;-75
2023/09/11 11:28:06;;;;;;;4.70;3.85;;;;;;;;;;5100702;28;20040;-77
2023/09/11 11:30:33;;;;;;;9.30;4.13;;;;;;;;;;5101392;28;20027;-76
2023/09/11 11:32:59;;;;;;;10.93;3.72;;;;;;;;;;5101019;28;20531;-76
2023/09/11 11:35:24;;;;;;;6.50;4.00;;;;;;;;;;5099893;28;20027;-74
2023/09/11 11:37:52;;;;;;;6.13;3.58;;;;;;;;;;5100939;28;20410;-74
2023/09/11 11:40:18;;;;;;;7.07;4.07;;;;;;;;;;5099420;28;20051;-77
2023/09/11 11:42:44;;;;;;;7.07;3.70;;;;;;;;;;5100086;28;20034;-75
2023/09/11 11:45:10;;;;;;;8.48;4.57;;;;;;;;;;5101193;28;20117;-75
2023/09/11 11:47:36;;;;;;;8.40;4.18;;;;;;;;;;5101338;28;20081;-75
2023/09/11 11:50:09;;;;;;;5.97;3.65;;;;;;;;;;5100801;28;20027;-75
2023/09/11 11:52:34;;;;;;;8.93;3.80;;;;;;;;;;5100939;28;20441;-76
2023/09/11 11:55:00;;;;;;;6.63;3.83;;;;;;;;;;5103053;28;20134;-74
2023/09/11 11:57:26;;;;;;;7.28;3.88;;;;;;;;;;5103991;28;20078;-76
2023/09/11 11:59:51;;;;;;;6.80;3.55;;;;;;;;;;5103075;28;20328;-75
2023/09/11 12:02:23;;;;;;;6.13;3.70;;;;;;;;;;5104314;28;20057;-75
2023/09/11 12:04:53;;;;;;;8.20;3.70;;;;;;;;;;5104906;28;20023;-76
2023/09/11 12:07:19;;;;;;;9.43;3.55;;;;;;;;;;5104953;28;20106;-75
2023/09/11 12:09:44;;;;;;;10.70;3.83;;;;;;;;;;5104671;28;20122;-75
2023/09/11 12:12:09;;;;;;;6.65;3.80;;;;;;;;;;5103180;28;20031;-76
2023/09/11 12:14:36;;;;;;;5.10;3.72;;;;;;;;;;5104999;28;20107;-75
2023/09/11 12:17:01;;;;;;;9.60;4.10;;;;;;;;;;5105217;28;20031;-77
2023/09/11 12:19:27;;;;;;;4.55;3.22;;;;;;;;;;5104045;28;20020;-75
2023/09/11 12:21:55;;;;;;;8.07;3.83;;;;;;;;;;5103707;28;20434;-75
2023/09/11 12:24:20;;;;;;;11.07;4.18;;;;;;;;;;5105246;28;20019;-76
2023/09/11 12:26:46;;;;;;;8.43;3.28;;;;;;;;;;5104381;27;20452;-76
2023/09/11 12:29:11;;;;;;;5.35;3.63;;;;;;;;;;5104124;28;20106;-75
2023/09/11 12:31:36;;;;;;;8.68;3.25;;;;;;;;;;5101525;28;20268;-75
2023/09/11 12:34:02;;;;;;;8.30;3.65;;;;;;;;;;5101053;27;20031;-75
2023/09/11 12:36:28;;;;;;;6.35;3.92;;;;;;;;;;5102859;28;20030;-75
2023/09/11 12:38:53;;;;;;;6.93;3.88;;;;;;;;;;5103298;28;20028;-77
2023/09/11 12:41:19;;;;;;;7.78;3.40;;;;;;;;;;5098269;28;20308;-75
2023/09/11 12:43:45;;;;;;;9.18;3.65;;;;;;;;;;5103210;28;20015;-75
2023/09/11 12:46:11;;;;;;;8.05;3.45;;;;;;;;;;5104117;28;20035;-75
2023/09/11 12:48:41;;;;;;;5.25;3.10;;;;;;;;;;5103563;27;20130;-76
2023/09/11 12:51:07;;;;;;;7.13;3.60;;;;;;;;;;5103126;28;20054;-75
2023/09/11 12:53:32;;;;;;;5.03;3.42;;;;;;;;;;5103272;28;20032;-74
2023/09/11 12:55:58;;;;;;;5.70;3.70;;;;;;;;;;5103341;28;20031;-75
2023/09/11 12:58:23;;;;;;;9.73;3.38;;;;;;;;;;5102125;28;20066;-75
2023/09/11 13:00:48;;;;;;;6.55;3.70;;;;;;;;;;5103685;28;20059;-75
2023/09/11 13:03:14;;;;;;;11.20;3.53;;;;;;;;;;5093656;28;20030;-74
2023/09/11 13:05:41;;;;;;;6.88;3.65;;;;;;;;;;5088607;28;20058;-76
2023/09/11 13:08:08;;;;;;;4.43;3.10;;;;;;;;;;5087378;28;20465;-75
2023/09/11 13:10:33;;;;;;;9.30;3.40;;;;;;;;;;5088405;28;20035;-75
2023/09/11 13:12:59;;;;;;;4.65;3.30;;;;;;;;;;5099477;28;20072;-75
2023/09/11 13:15:24;;;;;;;3.78;3.33;;;;;;;;;;5084728;28;20042;-76
2023/09/11 13:17:49;;;;;;;8.80;3.58;;;;;;;;;;5093999;28;20028;-75
2023/09/11 13:20:15;;;;;;;7.57;3.60;;;;;;;;;;5102886;28;20053;-76
2023/09/11 13:22:40;;;;;;;5.32;3.45;;;;;;;;;;5099461;28;20020;-77
2023/09/11 13:25:06;;;;;;;6.90;3.50;;;;;;;;;;5102866;28;20040;-74
2023/09/11 13:27:31;;;;;;;5.78;3.50;;;;;;;;;;5102488;28;20028;-76
2023/09/11 13:29:58;;;;;;;6.07;3.08;;;;;;;;;;5099967;28;20045;-75
2023/09/11 13:32:23;;;;;;;5.03;3.33;;;;;;;;;;5103555;28;20053;-74
2023/09/11 13:34:49;;;;;;;5.40;3.38;;;;;;;;;;5101770;27;20106;-75
2023/09/11 13:37:14;;;;;;;11.20;3.65;;;;;;;;;;5100862;28;20063;-76
2023/09/11 13:39:40;;;;;;;9.85;3.85;;;;;;;;;;5101533;28;20051;-78
2023/09/11 13:42:06;;;;;;;6.05;3.33;;;;;;;;;;5102053;28;20080;-75
2023/09/11 13:44:31;;;;;;;5.15;3.17;;;;;;;;;;5098478;28;20019;-75
2023/09/11 13:46:57;;;;;;;8.27;3.28;;;;;;;;;;5085880;28;20466;-76
2023/09/11 13:49:23;;;;;;;7.72;3.13;;;;;;;;;;5087910;28;20339;-74
2023/09/11 13:51:48;;;;;;;4.10;2.78;;;;;;;;;;5088719;28;20137;-75
2023/09/11 13:54:13;;;;;;;3.50;2.80;;;;;;;;;;5088042;28;20026;-75
2023/09/11 13:56:39;;;;;;;6.07;3.10;;;;;;;;;;5088289;28;20131;-76
2023/09/11 13:59:04;;;;;;;4.57;3.38;;;;;;;;;;5097726;28;20090;-75
2023/09/11 14:01:30;;;;;;;11.80;3.45;;;;;;;;;;5090332;28;20110;-75
2023/09/11 14:03:55;;;;;;;7.28;3.72;;;;;;;;;;5086476;28;20028;-76
2023/09/11 14:06:20;;;;;;;5.38;2.92;;;;;;;;;;5088512;28;20027;-74
2023/09/11 14:08:46;;;;;;;12.65;3.60;;;;;;;;;;5086468;28;20405;-77
2023/09/11 14:11:11;;;;;;;6.05;3.53;;;;;;;;;;5085146;28;20027;-74
2023/09/11 14:13:36;;;;;;;5.75;3.50;;;;;;;;;;5096679;28;20425;-74
2023/09/11 14:16:03;;;;;;;6.05;3.58;;;;;;;;;;5098625;28;20069;-74
2023/09/11 14:18:28;;;;;;;7.32;3.78;;;;;;;;;;5097095;28;20059;-76
2023/09/11 14:20:54;;;;;;;11.45;3.50;;;;;;;;;;5085558;28;20145;-75
2023/09/11 14:23:19;;;;;;;7.75;3.33;;;;;;;;;;5089876;28;20020;-75
2023/09/11 14:25:44;;;;;;;5.60;3.38;;;;;;;;;;5101204;28;20134;-75
2023/09/11 14:28:10;;;;;;;8.00;3.25;;;;;;;;;;5101180;28;20101;-75
2023/09/11 14:30:35;;;;;;;6.75;3.22;;;;;;;;;;5101525;28;20057;-76
2023/09/11 14:33:00;;;;;;;10.35;3.58;;;;;;;;;;5101762;28;20443;-73
2023/09/11 14:35:26;;;;;;;4.38;2.90;;;;;;;;;;5099991;28;20020;-71